Time;durP1;ratioP1;P1;durP2;ratioP2;P2;SDS_P1;SDS_P2;PMS_P1;PMS_P2;Temp;Humidity;BMP_temperature;BMP_pressure;BME280_temperature;BME280_humidity;BME280_pressure;Samples;Min_cycle;Max_cycle;Signal;HPM_P1;HPM_P2
2022/07/23 00:01:38;;;;;;;0.30;0.30;;;15.40;99.90;;;;;;4914288;28;20049;-82
2022/07/23 00:04:04;;;;;;;0.30;0.30;;;15.30;99.90;;;;;;4928156;28;20043;-82
2022/07/23 00:06:30;;;;;;;0.30;0.30;;;15.40;99.90;;;;;;4915406;28;20046;-82
2022/07/23 00:08:55;;;;;;;0.30;0.30;;;15.30;99.90;;;;;;4929163;28;20528;-83
2022/07/23 00:11:21;;;;;;;0.30;0.30;;;15.10;99.90;;;;;;4912495;28;20709;-83
2022/07/23 00:13:48;;;;;;;0.32;0.32;;;15.00;99.90;;;;;;4921153;28;20102;-82
2022/07/23 00:16:14;;;;;;;0.30;0.30;;;14.90;99.90;;;;;;4905800;28;20046;-83
2022/07/23 00:18:40;;;;;;;0.30;0.30;;;14.90;99.90;;;;;;4925014;28;20085;-83
2022/07/23 00:21:07;;;;;;;0.30;0.30;;;15.00;99.90;;;;;;4905224;28;20120;-82
2022/07/23 00:23:32;;;;;;;0.30;0.30;;;15.00;99.90;;;;;;4928317;28;20046;-83
2022/07/23 00:25:58;;;;;;;0.30;0.30;;;14.90;99.90;;;;;;4935536;28;20057;-82
2022/07/23 00:28:24;;;;;;;0.30;0.30;;;14.70;99.90;;;;;;4936854;28;20497;-82
2022/07/23 00:30:50;;;;;;;0.30;0.30;;;14.70;99.90;;;;;;4921502;28;20082;-82
2022/07/23 00:33:16;;;;;;;0.30;0.30;;;14.60;99.90;;;;;;4939580;28;20213;-83
2022/07/23 00:35:42;;;;;;;0.40;0.40;;;14.60;99.90;;;;;;4925098;28;20042;-83
2022/07/23 00:38:09;;;;;;;0.30;0.30;;;14.70;99.90;;;;;;4941707;28;20472;-82
2022/07/23 00:40:36;;;;;;;0.30;0.30;;;14.60;99.90;;;;;;4928455;28;20159;-82
2022/07/23 00:43:03;;;;;;;0.30;0.30;;;14.50;99.90;;;;;;4926137;28;20770;-82
2022/07/23 00:45:29;;;;;;;0.30;0.30;;;14.50;99.90;;;;;;4923664;28;20580;-82
2022/07/23 00:47:55;;;;;;;0.30;0.30;;;14.60;99.90;;;;;;4939809;28;20058;-82
2022/07/23 00:50:22;;;;;;;0.30;0.30;;;14.50;99.90;;;;;;4924373;28;20038;-82
2022/07/23 00:52:48;;;;;;;0.30;0.30;;;14.50;99.90;;;;;;4909337;28;20043;-81
2022/07/23 00:55:14;;;;;;;0.30;0.30;;;14.50;99.90;;;;;;4939694;28;20046;-82
2022/07/23 00:57:41;;;;;;;0.35;0.35;;;14.70;99.90;;;;;;4917915;28;20531;-82
2022/07/23 01:00:10;;;;;;;0.30;0.30;;;14.70;99.90;;;;;;4922317;28;20061;-81
2022/07/23 01:02:36;;;;;;;0.30;0.30;;;14.80;99.90;;;;;;4919250;28;20050;-82
2022/07/23 01:05:02;;;;;;;0.30;0.30;;;14.90;99.90;;;;;;4922955;28;20046;-82
2022/07/23 01:07:28;;;;;;;0.30;0.30;;;14.90;99.90;;;;;;4925388;28;20168;-82
2022/07/23 01:09:55;;;;;;;0.30;0.30;;;15.00;99.90;;;;;;4924276;28;20689;-82
2022/07/23 01:12:21;;;;;;;0.30;0.30;;;14.90;99.90;;;;;;4910532;28;21578;-82
2022/07/23 01:14:57;;;;;;;0.30;0.30;;;14.90;99.90;;;;;;4933120;28;20100;-82
2022/07/23 01:17:23;;;;;;;0.30;0.30;;;14.90;99.90;;;;;;4925909;28;20047;-82
2022/07/23 01:19:49;;;;;;;0.40;0.40;;;15.00;99.90;;;;;;4926211;28;20250;-82
2022/07/23 01:22:18;;;;;;;0.40;0.40;;;14.90;99.90;;;;;;4930031;28;20792;-82
2022/07/23 01:24:44;;;;;;;0.30;0.30;;;14.90;99.90;;;;;;4924379;28;20164;-81
2022/07/23 01:27:09;;;;;;;0.30;0.30;;;14.80;99.90;;;;;;4932963;28;20598;-82
2022/07/23 01:29:35;;;;;;;0.30;0.30;;;14.90;99.90;;;;;;4927081;28;20053;-82
2022/07/23 01:32:01;;;;;;;0.30;0.30;;;14.70;99.90;;;;;;4906894;28;20807;-82
2022/07/23 01:34:27;;;;;;;0.30;0.30;;;14.80;99.90;;;;;;4911608;28;20070;-82
2022/07/23 01:36:52;;;;;;;0.30;0.30;;;14.70;99.90;;;;;;4920552;28;20050;-82
2022/07/23 01:39:18;;;;;;;0.30;0.30;;;14.70;99.90;;;;;;4937251;28;20043;-82
2022/07/23 01:41:44;;;;;;;0.30;0.30;;;14.60;99.90;;;;;;4926522;28;20039;-83
2022/07/23 01:44:10;;;;;;;0.30;0.30;;;14.60;99.90;;;;;;4903644;28;20051;-82
2022/07/23 01:46:36;;;;;;;0.30;0.30;;;14.60;99.90;;;;;;4922284;28;20069;-82
2022/07/23 01:49:01;;;;;;;0.30;0.30;;;14.50;99.90;;;;;;4936579;28;20054;-82
2022/07/23 01:51:27;;;;;;;0.30;0.30;;;14.60;99.90;;;;;;4930193;28;20050;-82
2022/07/23 01:53:53;;;;;;;0.30;0.30;;;14.60;99.90;;;;;;4929469;28;20376;-82
2022/07/23 01:56:20;;;;;;;0.40;0.40;;;14.60;99.90;;;;;;4916373;28;20073;-82
2022/07/23 01:58:47;;;;;;;0.40;0.40;;;14.50;99.90;;;;;;4926270;28;20077;-82
2022/07/23 02:01:13;;;;;;;0.38;0.38;;;14.50;99.90;;;;;;4944172;28;20431;-82
2022/07/23 02:03:39;;;;;;;0.30;0.30;;;14.30;99.90;;;;;;4929600;28;20409;-82
2022/07/23 02:06:04;;;;;;;0.30;0.30;;;14.40;99.90;;;;;;4926275;28;20081;-83
2022/07/23 02:08:30;;;;;;;0.30;0.30;;;14.40;99.90;;;;;;4932230;28;20051;-82
2022/07/23 02:10:56;;;;;;;0.30;0.30;;;14.40;99.90;;;;;;4931167;28;20444;-82
2022/07/23 02:13:22;;;;;;;0.30;0.30;;;14.40;99.90;;;;;;4945789;28;20051;-82
2022/07/23 02:15:48;;;;;;;0.30;0.30;;;14.30;99.90;;;;;;4927544;28;20059;-83
2022/07/23 02:18:14;;;;;;;0.30;0.30;;;14.20;99.90;;;;;;4944382;28;20053;-82
2022/07/23 02:20:40;;;;;;;0.30;0.30;;;14.30;99.90;;;;;;4924680;28;20058;-83
2022/07/23 02:23:06;;;;;;;0.32;0.32;;;14.30;99.90;;;;;;4909387;28;20078;-82
2022/07/23 02:25:33;;;;;;;0.30;0.30;;;14.40;99.90;;;;;;4935542;28;20070;-83
2022/07/23 02:27:59;;;;;;;0.30;0.30;;;14.30;99.90;;;;;;4944796;28;20085;-83
2022/07/23 02:30:25;;;;;;;0.30;0.30;;;14.30;99.90;;;;;;4927750;28;20130;-83
2022/07/23 02:32:51;;;;;;;0.30;0.30;;;14.30;99.90;;;;;;4924657;28;20090;-81
2022/07/23 02:35:17;;;;;;;0.30;0.30;;;14.30;99.90;;;;;;4918707;28;20573;-83
2022/07/23 02:37:43;;;;;;;0.30;0.30;;;14.30;99.90;;;;;;4929044;28;20117;-82
2022/07/23 02:40:09;;;;;;;0.30;0.30;;;14.30;99.90;;;;;;4917713;28;20556;-82
2022/07/23 02:42:35;;;;;;;0.40;0.40;;;14.30;99.90;;;;;;4913108;28;20782;-82
2022/07/23 02:45:01;;;;;;;0.30;0.30;;;14.20;99.90;;;;;;4928365;28;20160;-83
2022/07/23 02:47:27;;;;;;;0.35;0.35;;;14.20;99.90;;;;;;4928750;28;20054;-83
2022/07/23 02:49:52;;;;;;;0.30;0.30;;;14.20;99.90;;;;;;4922800;28;20054;-83
2022/07/23 02:52:18;;;;;;;0.30;0.30;;;14.20;99.90;;;;;;4921343;28;20046;-83
2022/07/23 02:54:44;;;;;;;0.30;0.30;;;14.10;99.90;;;;;;4910461;28;20050;-82
2022/07/23 02:57:10;;;;;;;0.30;0.30;;;14.20;99.90;;;;;;4924284;28;20541;-83
2022/07/23 02:59:35;;;;;;;0.30;0.30;;;14.10;99.90;;;;;;4941859;28;20170;-83
2022/07/23 03:02:23;;;;;;;0.30;0.30;;;14.10;99.90;;;;;;4923905;28;20051;-82
2022/07/23 03:04:51;;;;;;;0.30;0.30;;;14.20;99.90;;;;;;4923684;28;20142;-83
2022/07/23 03:07:17;;;;;;;0.30;0.30;;;14.00;99.90;;;;;;4925146;28;20054;-84
2022/07/23 03:09:43;;;;;;;0.40;0.40;;;14.00;99.90;;;;;;4924373;28;20105;-83
2022/07/23 03:12:12;;;;;;;0.40;0.40;;;14.00;99.90;;;;;;4925733;28;20445;-83
2022/07/23 03:14:37;;;;;;;0.30;0.30;;;14.00;99.90;;;;;;4923318;28;20364;-83
2022/07/23 03:17:03;;;;;;;0.30;0.30;;;13.90;99.90;;;;;;4926195;28;20370;-83
2022/07/23 03:19:29;;;;;;;0.30;0.30;;;13.80;99.90;;;;;;4925464;28;20050;-82
2022/07/23 03:22:01;;;;;;;0.30;0.30;;;13.70;99.90;;;;;;4918778;28;20081;-83
2022/07/23 03:27:11;;;;;;;0.30;0.30;;;13.60;99.90;;;;;;4918842;28;20059;-82
2022/07/23 03:29:37;;;;;;;0.30;0.30;;;13.40;99.90;;;;;;4919884;28;20914;-82
2022/07/23 03:32:04;;;;;;;0.32;0.32;;;13.40;99.90;;;;;;4941238;28;20054;-82
2022/07/23 03:34:30;;;;;;;0.30;0.30;;;13.30;99.90;;;;;;4922092;28;20055;-82
2022/07/23 03:36:55;;;;;;;0.32;0.32;;;13.40;99.90;;;;;;4908519;28;20050;-82
2022/07/23 03:39:21;;;;;;;0.30;0.30;;;13.30;99.90;;;;;;4920843;28;20047;-82
2022/07/23 03:41:47;;;;;;;0.30;0.30;;;13.10;99.90;;;;;;4924781;28;20193;-82
2022/07/23 03:44:13;;;;;;;0.30;0.30;;;13.10;99.90;;;;;;4925182;28;20051;-83
2022/07/23 03:46:38;;;;;;;0.30;0.30;;;13.20;99.90;;;;;;4922384;28;20855;-83
2022/07/23 03:49:04;;;;;;;0.40;0.40;;;13.10;99.90;;;;;;4920421;28;20081;-82
2022/07/23 03:51:30;;;;;;;0.30;0.30;;;13.10;99.90;;;;;;4925001;28;20051;-83
2022/07/23 03:53:56;;;;;;;0.40;0.40;;;13.10;99.90;;;;;;4919401;28;20414;-83
2022/07/23 03:56:22;;;;;;;0.40;0.40;;;13.00;99.90;;;;;;4916970;28;20173;-83
2022/07/23 03:58:47;;;;;;;0.30;0.30;;;13.10;99.90;;;;;;4902946;28;20047;-83
2022/07/23 04:01:13;;;;;;;0.30;0.30;;;13.10;99.90;;;;;;4921628;28;20129;-82
2022/07/23 04:03:40;;;;;;;0.30;0.30;;;13.00;99.90;;;;;;4905817;28;20097;-82
2022/07/23 04:06:07;;;;;;;0.30;0.30;;;13.00;99.90;;;;;;4918337;28;20561;-83
2022/07/23 04:08:33;;;;;;;0.40;0.40;;;13.00;99.90;;;;;;4920079;28;20867;-83
2022/07/23 04:11:00;;;;;;;0.35;0.35;;;13.00;99.90;;;;;;4917860;28;20514;-82
2022/07/23 04:13:25;;;;;;;0.30;0.30;;;13.00;99.90;;;;;;4917784;28;20094;-82
2022/07/23 04:15:51;;;;;;;0.40;0.40;;;13.10;99.90;;;;;;4900589;28;20482;-82
2022/07/23 04:18:18;;;;;;;0.30;0.30;;;13.10;99.90;;;;;;4919515;28;20086;-82
2022/07/23 04:20:44;;;;;;;0.30;0.30;;;13.00;99.90;;;;;;4922508;28;20486;-83
2022/07/23 04:23:10;;;;;;;0.30;0.30;;;13.00;99.90;;;;;;4913781;28;20718;-82
2022/07/23 04:25:36;;;;;;;0.30;0.30;;;13.10;99.90;;;;;;4923582;28;20051;-83
2022/07/23 04:28:02;;;;;;;0.30;0.30;;;13.10;99.90;;;;;;4936851;28;20043;-82
2022/07/23 04:30:28;;;;;;;0.30;0.30;;;13.10;99.90;;;;;;4916405;28;20859;-83
2022/07/23 04:32:53;;;;;;;0.30;0.30;;;13.10;99.90;;;;;;4922961;28;21062;-83
2022/07/23 04:35:19;;;;;;;0.30;0.30;;;13.00;99.90;;;;;;4902739;28;20042;-83
2022/07/23 04:37:45;;;;;;;0.30;0.30;;;13.10;99.90;;;;;;4902227;28;20043;-83
2022/07/23 04:40:12;;;;;;;0.30;0.30;;;13.20;99.90;;;;;;4917224;28;20699;-83
2022/07/23 04:42:38;;;;;;;0.40;0.40;;;13.20;99.90;;;;;;4903555;28;20545;-83
2022/07/23 04:45:04;;;;;;;0.30;0.30;;;13.20;99.90;;;;;;4920805;28;20055;-83
2022/07/23 04:47:30;;;;;;;0.40;0.40;;;13.40;99.90;;;;;;4920209;28;20086;-82
2022/07/23 04:49:56;;;;;;;0.30;0.30;;;13.50;99.90;;;;;;4922865;28;20063;-82
2022/07/23 04:52:23;;;;;;;0.40;0.40;;;13.40;99.90;;;;;;4903469;28;20047;-82
2022/07/23 04:54:49;;;;;;;0.30;0.30;;;13.70;99.90;;;;;;4903680;28;20058;-82
2022/07/23 04:57:15;;;;;;;0.30;0.30;;;14.70;99.90;;;;;;4920312;28;20051;-83
2022/07/23 04:59:41;;;;;;;0.38;0.38;;;15.80;99.90;;;;;;4920281;28;20070;-82
2022/07/23 05:02:07;;;;;;;0.30;0.30;;;17.40;99.90;;;;;;4931211;28;20480;-82
2022/07/23 05:04:33;;;;;;;0.30;0.30;;;18.70;99.90;;;;;;4915290;28;20055;-82
2022/07/23 05:06:59;;;;;;;0.30;0.30;;;19.70;99.90;;;;;;4919106;28;20063;-82
2022/07/23 05:09:25;;;;;;;0.30;0.30;;;20.30;99.90;;;;;;4900664;28;20098;-82
2022/07/23 05:11:51;;;;;;;0.20;0.20;;;20.70;99.90;;;;;;4918484;28;20082;-82
2022/07/23 05:14:17;;;;;;;0.40;0.40;;;21.20;99.90;;;;;;4917215;28;20097;-83
2022/07/23 05:16:43;;;;;;;0.30;0.30;;;21.50;99.90;;;;;;4918106;28;20522;-82
2022/07/23 05:19:09;;;;;;;0.30;0.30;;;21.80;99.90;;;;;;4923427;28;20153;-83
2022/07/23 05:21:35;;;;;;;0.30;0.30;;;22.30;99.90;;;;;;4919593;28;20059;-83
2022/07/23 05:24:01;;;;;;;0.30;0.30;;;22.60;99.90;;;;;;4919557;28;20149;-83
2022/07/23 05:26:27;;;;;;;0.30;0.30;;;23.10;99.90;;;;;;4937555;28;20779;-83
2022/07/23 05:28:53;;;;;;;0.30;0.30;;;23.50;99.90;;;;;;4920088;28;20089;-83
2022/07/23 05:31:19;;;;;;;0.30;0.30;;;23.90;99.90;;;;;;4937039;28;20051;-83
2022/07/23 05:33:44;;;;;;;0.30;0.30;;;24.30;99.90;;;;;;4938307;28;20043;-83
2022/07/23 05:36:10;;;;;;;0.30;0.30;;;24.70;99.90;;;;;;4926700;28;20050;-82
2022/07/23 05:38:36;;;;;;;0.30;0.30;;;24.80;99.90;;;;;;4906773;28;20051;-83
2022/07/23 05:41:02;;;;;;;0.20;0.20;;;24.70;99.90;;;;;;4922720;28;20051;-83
2022/07/23 05:43:28;;;;;;;0.30;0.30;;;25.10;99.90;;;;;;4925682;28;20055;-81
2022/07/23 05:45:55;;;;;;;0.20;0.20;;;25.20;99.90;;;;;;4917971;28;20117;-83
2022/07/23 05:48:20;;;;;;;0.30;0.30;;;24.90;99.90;;;;;;4924032;28;20051;-82
2022/07/23 05:50:47;;;;;;;0.30;0.30;;;24.90;99.90;;;;;;4922967;28;20042;-82
2022/07/23 05:53:13;;;;;;;0.40;0.40;;;25.00;99.90;;;;;;4909163;28;20050;-84
2022/07/23 05:55:39;;;;;;;0.30;0.30;;;23.10;99.90;;;;;;4923999;28;20050;-84
2022/07/23 05:58:05;;;;;;;0.30;0.30;;;22.20;99.90;;;;;;4928728;28;20043;-83
2022/07/23 06:00:35;;;;;;;0.30;0.30;;;21.60;99.90;;;;;;4908364;28;20530;-83
2022/07/23 06:03:01;;;;;;;0.30;0.30;;;21.20;99.90;;;;;;4923460;28;20137;-84
2022/07/23 06:05:27;;;;;;;0.30;0.30;;;20.90;99.90;;;;;;4924909;28;21038;-83
2022/07/23 06:07:53;;;;;;;0.30;0.30;;;20.90;99.90;;;;;;4923369;28;20051;-82
2022/07/23 06:10:19;;;;;;;0.30;0.30;;;20.50;99.90;;;;;;4924912;28;20057;-83
2022/07/23 06:12:44;;;;;;;0.30;0.30;;;20.30;99.90;;;;;;4907029;28;20075;-82
2022/07/23 06:15:11;;;;;;;0.30;0.30;;;20.20;99.90;;;;;;4922177;28;20138;-84
2022/07/23 06:17:39;;;;;;;0.30;0.30;;;19.90;99.90;;;;;;4922356;28;20051;-82
2022/07/23 06:20:09;;;;;;;0.30;0.30;;;19.90;99.90;;;;;;4924561;28;20053;-81
2022/07/23 06:22:35;;;;;;;0.30;0.30;;;20.30;99.90;;;;;;4921557;28;20082;-84
2022/07/23 06:25:01;;;;;;;0.30;0.30;;;20.30;99.90;;;;;;4894180;28;20058;-83
2022/07/23 06:27:27;;;;;;;0.30;0.30;;;20.30;99.90;;;;;;4923052;28;20039;-83
2022/07/23 06:29:53;;;;;;;0.30;0.30;;;20.30;99.90;;;;;;4926468;28;20047;-83
2022/07/23 06:32:19;;;;;;;0.30;0.30;;;20.60;99.90;;;;;;4899950;28;20071;-83
2022/07/23 06:34:45;;;;;;;0.30;0.30;;;20.70;99.90;;;;;;4920376;28;20714;-83
2022/07/23 06:37:10;;;;;;;0.30;0.30;;;20.70;99.90;;;;;;4908967;28;20051;-83
2022/07/23 06:39:36;;;;;;;0.30;0.30;;;20.80;99.90;;;;;;4908320;28;20645;-85
2022/07/23 06:42:02;;;;;;;0.30;0.30;;;20.70;99.90;;;;;;4922145;28;20141;-83
2022/07/23 06:44:28;;;;;;;0.30;0.30;;;20.80;99.90;;;;;;4919513;28;20145;-83
2022/07/23 06:46:54;;;;;;;0.30;0.30;;;20.50;99.90;;;;;;4916735;28;20063;-83
2022/07/23 06:49:20;;;;;;;0.30;0.30;;;20.60;99.90;;;;;;4920950;28;20129;-82
2022/07/23 06:51:46;;;;;;;0.30;0.30;;;20.50;99.90;;;;;;4940285;28;20133;-83
2022/07/23 06:54:12;;;;;;;0.30;0.30;;;20.40;99.90;;;;;;4934626;28;20088;-83
2022/07/23 06:56:37;;;;;;;0.30;0.30;;;20.50;99.90;;;;;;4923199;28;20658;-84
2022/07/23 06:59:03;;;;;;;0.30;0.30;;;20.40;99.90;;;;;;4903007;28;20071;-81
2022/07/23 07:01:29;;;;;;;0.30;0.30;;;20.50;99.90;;;;;;4921629;28;20078;-83
2022/07/23 07:03:55;;;;;;;0.30;0.30;;;20.50;99.90;;;;;;4919010;28;20125;-81
2022/07/23 07:06:21;;;;;;;0.30;0.30;;;20.70;99.90;;;;;;4919110;28;20872;-83
2022/07/23 07:08:46;;;;;;;0.30;0.30;;;20.60;99.90;;;;;;4921472;28;20061;-82
2022/07/23 07:11:12;;;;;;;0.30;0.30;;;20.60;99.90;;;;;;4933859;28;20055;-83
2022/07/23 07:13:38;;;;;;;0.30;0.30;;;20.70;99.90;;;;;;4903158;28;20054;-82
2022/07/23 07:16:04;;;;;;;0.30;0.30;;;20.90;99.90;;;;;;4916219;28;20051;-83
2022/07/23 07:18:30;;;;;;;0.30;0.30;;;20.70;99.90;;;;;;4918798;28;20065;-83
2022/07/23 07:20:59;;;;;;;0.30;0.30;;;21.00;99.90;;;;;;4920414;28;20050;-83
2022/07/23 07:23:25;;;;;;;0.30;0.30;;;20.80;99.90;;;;;;4906989;28;20054;-82
2022/07/23 07:25:52;;;;;;;0.30;0.30;;;21.00;99.90;;;;;;4921558;28;20039;-83
2022/07/23 07:28:18;;;;;;;0.30;0.30;;;20.80;99.90;;;;;;4919683;28;20395;-83
2022/07/23 07:30:44;;;;;;;0.30;0.30;;;20.60;99.90;;;;;;4920377;28;20062;-83
2022/07/23 07:33:10;;;;;;;0.30;0.30;;;21.00;99.90;;;;;;4917175;28;20051;-80
2022/07/23 07:35:35;;;;;;;0.30;0.30;;;21.20;99.90;;;;;;4918419;28;20062;-82
2022/07/23 07:38:01;;;;;;;0.30;0.30;;;21.10;99.90;;;;;;4898596;28;20066;-83
2022/07/23 07:40:27;;;;;;;0.30;0.30;;;20.60;99.90;;;;;;4903341;28;20418;-83
2022/07/23 07:42:56;;;;;;;0.30;0.30;;;20.50;99.90;;;;;;4902040;28;20601;-84
2022/07/23 07:45:23;;;;;;;0.30;0.30;;;21.10;99.90;;;;;;4902253;28;20067;-83
2022/07/23 07:47:50;;;;;;;0.20;0.20;;;21.30;99.90;;;;;;4918874;28;20058;-83
2022/07/23 07:50:16;;;;;;;0.30;0.30;;;21.40;99.90;;;;;;4919500;28;20054;-83
2022/07/23 07:52:42;;;;;;;0.30;0.30;;;21.50;99.90;;;;;;4921358;28;20158;-83
2022/07/23 07:55:09;;;;;;;0.30;0.30;;;21.50;99.90;;;;;;4913746;28;20097;-84
2022/07/23 07:57:35;;;;;;;0.30;0.30;;;21.20;99.90;;;;;;4916811;28;20047;-83
2022/07/23 08:00:02;;;;;;;0.30;0.30;;;21.40;99.90;;;;;;4925975;28;20062;-83
2022/07/23 08:02:28;;;;;;;0.30;0.30;;;21.40;99.90;;;;;;4915499;28;20058;-84
2022/07/23 08:04:53;;;;;;;0.20;0.20;;;21.50;99.90;;;;;;4916513;28;20078;-83
2022/07/23 08:07:19;;;;;;;0.30;0.30;;;21.70;99.90;;;;;;4919048;28;20190;-83
2022/07/23 08:09:45;;;;;;;0.30;0.30;;;21.50;99.90;;;;;;4904974;28;20157;-82
2022/07/23 08:12:11;;;;;;;0.30;0.30;;;21.00;99.90;;;;;;4919428;28;20051;-82
2022/07/23 08:14:37;;;;;;;0.30;0.30;;;20.60;99.90;;;;;;4921295;28;20773;-84
2022/07/23 08:17:03;;;;;;;0.20;0.20;;;20.70;99.90;;;;;;4923554;28;20084;-82
2022/07/23 08:19:29;;;;;;;0.30;0.30;;;21.10;99.90;;;;;;4904348;28;20480;-85
2022/07/23 08:21:55;;;;;;;0.20;0.20;;;21.20;99.90;;;;;;4919471;28;20061;-83
2022/07/23 08:24:20;;;;;;;0.30;0.30;;;21.70;99.90;;;;;;4916414;28;20058;-83
2022/07/23 08:26:46;;;;;;;0.30;0.30;;;21.90;99.90;;;;;;4932667;28;20064;-81
2022/07/23 08:29:12;;;;;;;0.30;0.30;;;21.70;99.90;;;;;;4917485;28;20102;-83
2022/07/23 08:31:40;;;;;;;0.20;0.20;;;21.50;99.90;;;;;;4902415;28;20062;-83
2022/07/23 08:34:05;;;;;;;0.30;0.30;;;22.00;99.90;;;;;;4919122;28;21163;-82
2022/07/23 08:36:32;;;;;;;0.30;0.30;;;21.90;99.90;;;;;;4922496;28;20070;-82
2022/07/23 08:39:31;;;;;;;0.30;0.30;;;21.90;99.90;;;;;;4917266;28;20129;-82
2022/07/23 08:41:57;;;;;;;0.30;0.30;;;22.40;99.90;;;;;;4916017;28;20043;-83
2022/07/23 08:44:23;;;;;;;0.30;0.30;;;22.40;99.90;;;;;;4920675;28;20043;-82
2022/07/23 08:46:49;;;;;;;0.30;0.30;;;22.20;99.90;;;;;;4911975;28;20758;-83
2022/07/23 08:49:15;;;;;;;0.20;0.20;;;22.60;99.90;;;;;;4901322;28;20078;-84
2022/07/23 08:51:41;;;;;;;0.30;0.30;;;22.30;99.90;;;;;;4923046;28;20062;-83
2022/07/23 08:54:07;;;;;;;0.30;0.30;;;22.70;99.90;;;;;;4922179;28;20625;-82
2022/07/23 08:56:34;;;;;;;0.20;0.20;;;22.10;99.90;;;;;;4926150;28;20399;-81
2022/07/23 08:59:00;;;;;;;0.20;0.20;;;22.30;99.90;;;;;;4919086;28;20043;-82
2022/07/23 09:01:26;;;;;;;0.30;0.30;;;22.30;99.90;;;;;;4916583;28;20059;-81
2022/07/23 09:03:52;;;;;;;0.20;0.20;;;22.40;99.90;;;;;;4917961;28;20153;-83
2022/07/23 09:06:18;;;;;;;0.30;0.30;;;22.60;99.90;;;;;;4924090;28;20061;-82
2022/07/23 09:08:46;;;;;;;0.25;0.25;;;22.50;99.90;;;;;;4918204;28;20047;-81
2022/07/23 09:11:20;;;;;;;0.30;0.30;;;21.80;99.90;;;;;;4919141;28;20055;-82
2022/07/23 09:13:48;;;;;;;0.20;0.20;;;21.40;99.90;;;;;;4918609;28;20047;-85
2022/07/23 09:16:29;;;;;;;0.30;0.30;;;22.10;99.90;;;;;;4913774;28;20087;-82
2022/07/23 09:19:00;;;;;;;0.30;0.30;;;22.20;99.90;;;;;;4922971;28;20113;-82
2022/07/23 09:21:39;;;;;;;0.20;0.20;;;22.50;99.90;;;;;;4921226;28;20050;-85
2022/07/23 09:24:07;;;;;;;0.30;0.30;;;23.00;99.90;;;;;;4921686;28;20082;-82
2022/07/23 09:26:41;;;;;;;0.20;0.20;;;23.30;99.90;;;;;;4937576;28;20055;-82
2022/07/23 09:29:16;;;;;;;0.20;0.20;;;23.70;99.90;;;;;;4922542;28;20061;-83
2022/07/23 09:31:52;;;;;;;0.20;0.20;;;24.00;99.90;;;;;;4922434;28;20525;-84
2022/07/23 09:34:24;;;;;;;0.20;0.20;;;23.60;99.90;;;;;;4920584;28;20055;-84
2022/07/23 09:36:55;;;;;;;0.30;0.30;;;23.10;99.90;;;;;;4929329;28;20055;-84
2022/07/23 09:39:33;;;;;;;0.20;0.20;;;23.20;99.90;;;;;;4945735;28;20069;-82
2022/07/23 09:42:21;;;;;;;0.22;0.22;;;23.70;99.90;;;;;;4935513;28;20054;-83
2022/07/23 09:44:49;;;;;;;0.30;0.30;;;24.10;99.90;;;;;;4942944;28;20102;-83
2022/07/23 09:47:16;;;;;;;0.25;0.25;;;23.70;99.90;;;;;;4936051;28;20509;-83
2022/07/23 09:50:00;;;;;;;0.20;0.20;;;23.70;99.90;;;;;;4933656;28;20150;-83
2022/07/23 09:52:35;;;;;;;0.30;0.30;;;23.00;99.90;;;;;;4935209;28;20871;-82
2022/07/23 09:55:01;;;;;;;;;;;23.60;99.90;;;;;;4930184;28;20142;-85
2022/07/23 09:57:28;;;;;;;0.30;0.30;;;23.20;99.90;;;;;;4934456;28;19926;-83
2022/07/23 09:59:58;;;;;;;0.20;0.20;;;23.10;99.90;;;;;;4954034;28;20054;-82
2022/07/23 10:02:25;;;;;;;0.30;0.30;;;23.10;99.90;;;;;;4934865;28;20053;-84
2022/07/23 10:04:54;;;;;;;0.20;0.20;;;23.50;99.90;;;;;;4937497;28;20460;-84
2022/07/23 10:07:23;;;;;;;0.20;0.20;;;23.90;99.90;;;;;;4928646;28;20695;-82
2022/07/23 10:09:52;;;;;;;0.20;0.20;;;24.20;99.90;;;;;;4946434;28;20054;-83
2022/07/23 10:15:08;;;;;;;0.20;0.20;;;23.90;99.90;;;;;;4954664;28;20043;-83
2022/07/23 10:17:35;;;;;;;0.20;0.20;;;23.30;99.90;;;;;;4936690;28;20054;-83
2022/07/23 10:20:01;;;;;;;0.22;0.22;;;23.10;99.90;;;;;;4938100;28;20062;-84
2022/07/23 10:22:36;;;;;;;0.20;0.20;;;23.40;99.90;;;;;;4953049;28;20046;-85
2022/07/23 10:25:32;;;;;;;0.20;0.20;;;23.50;99.90;;;;;;4937703;28;20082;-84
2022/07/23 10:28:19;;;;;;;0.30;0.30;;;24.30;99.90;;;;;;4956456;28;20112;-82
2022/07/23 10:30:57;;;;;;;0.20;0.20;;;24.70;99.90;;;;;;4958504;28;20063;-83
2022/07/23 10:33:45;;;;;;;0.20;0.20;;;24.40;99.90;;;;;;4931190;28;20054;-83
2022/07/23 10:36:37;;;;;;;0.20;0.20;;;24.70;99.90;;;;;;4950054;28;20054;-83
2022/07/23 10:39:36;;;;;;;0.22;0.22;;;23.90;99.90;;;;;;4938366;28;20086;-83
2022/07/23 10:42:14;;;;;;;0.20;0.20;;;23.50;99.90;;;;;;4890681;28;20062;-82
2022/07/23 10:44:47;;;;;;;0.30;0.30;;;23.60;99.90;;;;;;4936880;28;20046;-83
2022/07/23 10:47:40;;;;;;;0.30;0.30;;;24.30;99.90;;;;;;4950249;28;20050;-83
2022/07/23 10:50:35;;;;;;;0.30;0.30;;;24.20;99.90;;;;;;4936917;28;20100;-81
2022/07/23 10:53:12;;;;;;;0.30;0.30;;;24.60;99.90;;;;;;4918668;28;20061;-82
2022/07/23 10:55:38;;;;;;;0.20;0.20;;;25.10;99.90;;;;;;4943360;28;20524;-82
2022/07/23 10:58:07;;;;;;;0.30;0.30;;;24.80;99.90;;;;;;4920419;28;20141;-81
2022/07/23 11:00:35;;;;;;;0.20;0.20;;;24.90;99.90;;;;;;4918094;28;20751;-82
2022/07/23 11:03:21;;;;;;;0.20;0.20;;;25.20;99.90;;;;;;4907992;28;20128;-83
2022/07/23 11:05:47;;;;;;;0.20;0.20;;;24.70;99.90;;;;;;4925139;28;20051;-82
2022/07/23 11:08:16;;;;;;;0.28;0.28;;;24.70;99.90;;;;;;4931542;28;20054;-82
2022/07/23 11:11:01;;;;;;;0.20;0.20;;;24.40;99.90;;;;;;4920895;28;20047;-82
2022/07/23 11:13:32;;;;;;;0.20;0.20;;;24.50;99.90;;;;;;4923536;28;20113;-83
2022/07/23 11:16:00;;;;;;;0.20;0.20;;;24.30;99.90;;;;;;4921527;28;20579;-82
2022/07/23 11:18:47;;;;;;;0.20;0.20;;;23.80;99.90;;;;;;4924870;28;20050;-83
2022/07/23 11:21:31;;;;;;;0.20;0.20;;;23.30;99.90;;;;;;4924987;28;20533;-85
2022/07/23 11:23:57;;;;;;;0.30;0.30;;;24.10;99.90;;;;;;4938666;28;20108;-84
2022/07/23 11:26:39;;;;;;;0.20;0.20;;;24.90;99.90;;;;;;4940921;28;20485;-82
2022/07/23 11:29:36;;;;;;;0.20;0.20;;;25.20;99.90;;;;;;4933102;28;20817;-82
2022/07/23 11:32:06;;;;;;;0.20;0.20;;;24.80;99.90;;;;;;4952140;28;20054;-82
2022/07/23 11:34:35;;;;;;;0.20;0.20;;;24.70;99.90;;;;;;4936027;28;20078;-83
2022/07/23 11:37:03;;;;;;;0.20;0.20;;;25.30;99.90;;;;;;4920209;28;20062;-84
2022/07/23 11:39:30;;;;;;;0.22;0.22;;;25.20;99.90;;;;;;4933489;28;22474;-83
2022/07/23 11:41:58;;;;;;;0.28;0.28;;;25.20;99.90;;;;;;4945714;28;20050;-84
2022/07/23 11:44:35;;;;;;;0.20;0.20;;;24.80;99.90;;;;;;4926119;28;20046;-83
2022/07/23 11:47:03;;;;;;;0.25;0.25;;;24.40;99.90;;;;;;4929877;28;20148;-84
2022/07/23 11:49:29;;;;;;;0.20;0.20;;;24.20;99.90;;;;;;4915467;28;20974;-83
2022/07/23 11:52:13;;;;;;;0.20;0.20;;;23.10;99.90;;;;;;4923928;28;20042;-82
2022/07/23 11:54:54;;;;;;;0.20;0.20;;;23.10;99.90;;;;;;4930570;28;20047;-83
2022/07/23 11:57:24;;;;;;;0.20;0.20;;;23.50;99.90;;;;;;4923867;28;20061;-83
2022/07/23 11:59:54;;;;;;;0.20;0.20;;;23.30;99.90;;;;;;4938151;28;20266;-84
2022/07/23 12:02:21;;;;;;;0.30;0.30;;;23.80;99.90;;;;;;4924639;28;20061;-85
2022/07/23 12:04:49;;;;;;;0.20;0.20;;;24.50;99.90;;;;;;4921990;28;20505;-82
2022/07/23 12:07:29;;;;;;;0.30;0.30;;;24.10;99.90;;;;;;4922459;28;20107;-85
2022/07/23 12:09:58;;;;;;;0.20;0.20;;;24.30;99.90;;;;;;4920137;28;20149;-85
2022/07/23 12:12:24;;;;;;;0.25;0.25;;;24.50;99.90;;;;;;4917793;28;20052;-82
2022/07/23 12:14:58;;;;;;;0.30;0.30;;;25.40;99.90;;;;;;4938399;28;20110;-83
2022/07/23 12:17:29;;;;;;;0.20;0.20;;;24.70;99.90;;;;;;4905115;28;20062;-82
2022/07/23 12:20:00;;;;;;;0.30;0.30;;;24.60;99.90;;;;;;4924418;28;20077;-82
2022/07/23 12:22:34;;;;;;;0.25;0.25;;;24.80;99.90;;;;;;4924355;28;20778;-85
2022/07/23 12:25:04;;;;;;;0.30;0.30;;;24.30;99.90;;;;;;4937850;28;20042;-83
2022/07/23 12:27:30;;;;;;;0.30;0.30;;;24.60;99.90;;;;;;4917442;28;20072;-84
2022/07/23 12:29:56;;;;;;;0.30;0.30;;;24.80;99.90;;;;;;4913021;28;20050;-84
2022/07/23 12:32:23;;;;;;;0.20;0.20;;;25.10;99.90;;;;;;4909443;28;20516;-82
2022/07/23 12:35:08;;;;;;;0.20;0.20;;;24.90;99.90;;;;;;4899393;28;20723;-81
2022/07/23 12:37:36;;;;;;;0.30;0.30;;;24.50;99.90;;;;;;4925014;28;20840;-82
2022/07/23 12:40:48;;;;;;;0.20;0.20;;;24.40;99.90;;;;;;4905618;28;20094;-83
2022/07/23 12:43:22;;;;;;;0.20;0.20;;;24.10;99.90;;;;;;4910993;28;20129;-83
2022/07/23 12:45:56;;;;;;;0.20;0.20;;;23.80;99.90;;;;;;4924393;28;20063;-83
2022/07/23 12:48:30;;;;;;;0.20;0.20;;;24.00;99.90;;;;;;4916775;28;20054;-81
2022/07/23 12:51:01;;;;;;;0.20;0.20;;;25.00;99.90;;;;;;4926731;28;20045;-81
2022/07/23 12:53:30;;;;;;;0.20;0.20;;;25.50;99.90;;;;;;4930075;28;20629;-83
2022/07/23 12:56:08;;;;;;;0.30;0.30;;;25.60;99.90;;;;;;4924544;28;21695;-82
2022/07/23 12:58:47;;;;;;;0.28;0.28;;;24.80;99.90;;;;;;4927479;28;20589;-82
2022/07/23 13:01:24;;;;;;;0.20;0.20;;;24.90;99.90;;;;;;4911950;28;20054;-82